Flight Track Log - Related Links

Times and Time Zones

All times are in EDT time to prevent confusion due to time zone crossing. See the FFT693 flight status page for this flight to view local times or setup timezone preferences in your user account.


Time Position Orientation Groundspeed Altitude Reporting Facility
EDT Latitude Longitude Course Direction KTS MPH feet Rate Location/Type
Sun 07:26:20 PM 41.8797 -91.8131 260° West 182 209 3,800  Level Minneapolis Center
Sun 07:27:22 PM 41.8681 -91.9186 262° West 217 250 7,500 3,339 Climbing Minneapolis Center
Sun 07:28:24 PM 41.8586 -92.0175 263° West 257 296 10,700 2,780 Climbing Minneapolis Center
Sun 07:29:25 PM 41.8486 -92.1281 263° West 283 326 13,200 2,551 Climbing Minneapolis Center
Sun 07:30:31 PM 41.8358 -92.2464 262° West 320 368 16,100 2,484 Climbing Chicago Center
Sun 07:31:00 PM 41.8724 -91.8056 260° West  Level FlightAware Approximate
Sun 07:31:33 PM 41.8242 -92.3689 263° West 333 383 18,500  Level Chicago Center
Sun 07:32:34 PM 41.8081 -92.5228 262° West 349 402 21,200 2,237 Climbing Chicago Center
Sun 07:33:31 PM 41.7964 -92.6308 262° West 355 409 22,900 1,966 Climbing Minneapolis Center
Sun 07:34:33 PM 41.7797 -92.7972 262° West 372 428 25,100 1,805 Climbing Minneapolis Center
Sun 07:35:34 PM 41.7650 -92.9367 262° West 387 445 26,600 1,463 Climbing Minneapolis Center
Sun 07:36:36 PM 41.7486 -93.0886 262° West 405 466 28,100 1,415 Climbing Minneapolis Center
Sun 07:37:37 PM 41.7322 -93.2458 262° West 422 486 29,500 1,366 Climbing Minneapolis Center
Sun 07:38:39 PM 41.7150 -93.4058 262° West 434 499 30,900 1,597 Climbing Minneapolis Center
Sun 07:39:41 PM 41.6922 -93.5994 261° West 441 507 32,800 1,463 Climbing Minneapolis Center
Sun 07:40:42 PM 41.6756 -93.7633 262° West 446 513 33,900 634 Climbing Minneapolis Center
Sun 07:41:44 PM 41.6575 -93.9256 262° West 446 513 34,100 537 Climbing Minneapolis Center
Sun 07:42:45 PM 41.6392 -94.0878 261° West 445 512 35,000 439 Climbing Minneapolis Center
Sun 07:43:47 PM 41.6186 -94.2486 260° West 448 516 35,000  Level Minneapolis Center
Sun 07:44:48 PM 41.5925 -94.4439 260° West 445 512 35,000 293 Level Minneapolis Center
Sun 07:45:50 PM 41.5742 -94.6067 261° West 443 510 35,600 780 Climbing Minneapolis Center
Sun 07:46:51 PM 41.5556 -94.7722 262° West 448 516 36,600 1,122 Climbing Minneapolis Center
Sun 07:47:53 PM 41.5367 -94.9350 261° West 446 513 37,900 677 Climbing Minneapolis Center
Sun 07:48:55 PM 41.5178 -95.0875 261° West 423 487 38,000 49 Climbing Minneapolis Center
Sun 07:49:56 PM 41.4983 -95.2422 261° West 422 486 38,000  Level Minneapolis Center
Sun 07:50:58 PM 41.4781 -95.4011 260° West 432 497 38,000 49 Level Minneapolis Center
Sun 07:51:59 PM 41.4611 -95.5289 260° West 436 502 38,100  Climbing Minneapolis Center
Sun 07:53:01 PM 41.4356 -95.7250 260° West 437 503 38,000 -49 Descending Minneapolis Center
Sun 07:54:02 PM 41.4100 -95.9156 260° West 437 503 38,000  Level Minneapolis Center
Sun 07:55:04 PM 41.3908 -96.0742 261° West 435 501 38,000  Level Minneapolis Center
Sun 07:56:05 PM 41.3678 -96.2322 259° West 435 501 38,000  Level Minneapolis Center
Sun 07:57:07 PM 41.3494 -96.3711 260° West 434 499 38,000  Level Minneapolis Center
Sun 07:58:08 PM 41.3272 -96.5303 260° West 437 503 38,000  Level Minneapolis Center
Sun 07:59:10 PM 41.3050 -96.6903 260° West 440 506 38,000  Level Minneapolis Center
Sun 08:00:11 PM 41.2825 -96.8494 259° West 440 506 38,000  Level Minneapolis Center
Sun 08:01:13 PM 41.2553 -97.0403 259° West 438 504 38,000  Level Minneapolis Center
Sun 08:02:14 PM 41.2367 -97.1683 259° West 439 505 38,000  Level Minneapolis Center
Sun 08:03:16 PM 41.2089 -97.3581 259° West 439 505 38,000  Level Minneapolis Center
Sun 08:04:18 PM 41.1831 -97.5389 259° West 439 505 38,000  Level Minneapolis Center
Sun 08:05:19 PM 41.1583 -97.6969 258° West 438 504 38,000  Level Minneapolis Center
Sun 08:06:21 PM 41.1353 -97.8569 259° West 440 506 38,000  Level Minneapolis Center
Sun 08:07:22 PM 41.1108 -98.0156 258° West 439 505 38,000  Level Minneapolis Center
Sun 08:08:24 PM 41.0867 -98.1750 259° West 440 506 38,000  Level Minneapolis Center
Sun 08:09:25 PM 41.0622 -98.3347 259° West 441 507 38,000  Level Minneapolis Center
Sun 08:10:27 PM 41.0439 -98.5017 262° West 437 503 38,000  Level Minneapolis Center
Sun 08:11:28 PM 41.0264 -98.6594 262° West 435 501 38,000  Level Minneapolis Center
Sun 08:12:30 PM 41.0081 -98.8178 261° West 435 501 38,000  Level Minneapolis Center
Sun 08:13:31 PM 40.9908 -98.9761 262° West 435 501 38,000  Level Minneapolis Center
Sun 08:14:33 PM 40.9728 -99.1372 262° West 431 496 38,000  Level Minneapolis Center
Sun 08:14:50 PM 40.9656 -99.2006 261° West 433 498 38,000  Level Denver Center
Sun 08:15:52 PM 40.9469 -99.3592 261° West 434 499 38,000  Level Denver Center
Sun 08:16:54 PM 40.9283 -99.5167 261° West 434 499 38,000  Level Denver Center
Sun 08:17:56 PM 40.9094 -99.6753 261° West 435 501 38,000  Level Denver Center
Sun 08:18:58 PM 40.8889 -99.8464 261° West 434 499 38,000  Level Denver Center
Sun 08:20:00 PM 40.8700 -99.9967 261° West 434 499 38,000  Level Denver Center
Sun 08:21:01 PM 40.8483 -100.1728 261° West 435 501 38,000  Level Denver Center
Sun 08:22:03 PM 40.8283 -100.3247 260° West 437 503 38,000  Level Denver Center
Sun 08:23:17 PM 40.8067 -100.5014 261° West 437 503 38,000  Level Denver Center
Sun 08:24:19 PM 40.7814 -100.6806 260° West 438 504 38,000  Level Denver Center
Sun 08:25:33 PM 40.7508 -100.8669 258° West 444 511 38,000  Level Denver Center
Sun 08:26:35 PM 40.7228 -101.0453 258° West 443 510 38,000  Level Denver Center
Sun 08:27:37 PM 40.6914 -101.2244 257° West 447 514 38,000  Level Denver Center
Sun 08:28:39 PM 40.6642 -101.3736 257° West 440 506 38,000  Level Denver Center
Sun 08:29:41 PM 40.6344 -101.5489 257° West 440 506 38,000  Level Denver Center
Sun 08:30:43 PM 40.6075 -101.6986 257° West 438 504 38,000  Level Denver Center
Sun 08:31:44 PM 40.5800 -101.8475 256° West 438 504 38,000  Level Denver Center
Sun 08:32:46 PM 40.5486 -102.0219 257° West 440 506 38,000  Level Denver Center
Sun 08:33:48 PM 40.5206 -102.1725 256° West 443 510 38,000  Level Denver Center
Sun 08:34:50 PM 40.4875 -102.3469 256° West 443 510 38,000  Level Denver Center
Sun 08:35:51 PM 40.4608 -102.4975 257° West 442 509 38,000 -683 Level Denver Center
Sun 08:36:53 PM 40.4269 -102.6725 256° West 443 510 36,600 -1,809 Descending Denver Center
Sun 08:38:07 PM 40.3989 -102.8256 257° West 450 518 33,900 -2,824 Descending Denver Center
Sun 08:39:09 PM 40.3594 -103.0303 256° West 455 524 30,200 -2,806 Descending Denver Center
Sun 08:40:11 PM 40.3308 -103.1819 256° West 450 518 28,100 -2,244 Descending Denver Center
Sun 08:41:12 PM 40.2975 -103.3511 256° West 430 495 25,600 -2,341 Descending Denver Center
Sun 08:42:14 PM 40.2678 -103.5061 256° West 423 487 23,300 -2,032 Descending Denver Center
Sun 08:43:16 PM 40.2403 -103.6428 255° West 409 471 21,400 -1,561 Descending Denver Center
Sun 08:44:17 PM 40.2142 -103.7833 256° West 398 458 20,100 -1,024 Descending Denver Center
Sun 08:45:19 PM 40.1697 -103.9175 247° West 389 448 19,300 -1,306 Descending Denver Center
Sun 08:46:21 PM 40.1161 -104.0367 240° Southwest 380 437 17,400 -1,659 Descending Denver Center
Sun 08:47:22 PM 40.0578 -104.1578 238° Southwest 368 423 15,900 -1,220 Descending Denver Center
Sun 08:48:24 PM 40.0089 -104.2653 239° Southwest 346 398 14,900 -1,258 Descending Denver Center
Sun 08:49:26 PM 39.9636 -104.3619 239° Southwest 319 367 13,300 -1,189 Descending Denver Center
Sun 08:50:15 PM 39.9333 -104.4333 241° Southwest 293 337 12,700 -936 Descending Denver TRACON
Sun 08:51:15 PM 39.8667 -104.5000 218° Southwest 291 335 11,600 -1,000 Descending Denver TRACON
Sun 08:52:15 PM 39.8000 -104.5000 180° South 271 312 10,700 -1,040 Descending Denver TRACON
Sun 08:52:30 PM 39.7747 -104.5003 180° South 275 316 10,300 -1,091 Descending Denver Center
Sun 08:53:32 PM 39.6992 -104.5117 187° South 256 295 9,300 -1,065 Descending Denver Center
Sun 08:54:34 PM 39.6806 -104.5828 251° West 223 257 8,100 -732 Descending Denver Center
Sun 08:55:35 PM 39.6875 -104.6464 278° West 220 253 7,800 -585 Descending Denver Center
Sun 08:56:37 PM 39.7517 -104.6617 350° North 193 222 6,900 -871 Descending Denver Center
Sun 08:57:39 PM 39.7992 -104.6611 North 174 200 6,000 -732 Descending Denver Center
Sun 08:58:40 PM 39.8331 -104.6611 360° North 148 170 5,400 -590 Descending Denver Center

Login

Don't have an account? Register now (free) for customized features, flight alerts, and more!